sensor_id;sensor_type;location;lat;lon;timestamp;P1;durP1;ratioP1;P2;durP2;ratioP2
20954;SDS011;10636;19.390;-99.256;2022-09-09T00:00:47;5.85;;;5.38;;
20954;SDS011;10636;19.390;-99.256;2022-09-09T00:03:33;6.40;;;5.63;;
20954;SDS011;10636;19.390;-99.256;2022-09-09T00:06:09;6.00;;;5.50;;
20954;SDS011;10636;19.390;-99.256;2022-09-09T00:08:50;5.88;;;5.38;;
20954;SDS011;10636;19.390;-99.256;2022-09-09T00:11:29;6.03;;;5.63;;
20954;SDS011;10636;19.390;-99.256;2022-09-09T00:14:05;6.75;;;5.75;;
20954;SDS011;10636;19.390;-99.256;2022-09-09T00:16:42;5.95;;;5.35;;
20954;SDS011;10636;19.390;-99.256;2022-09-09T00:19:19;6.60;;;6.00;;
20954;SDS011;10636;19.390;-99.256;2022-09-09T00:21:54;6.88;;;6.18;;
20954;SDS011;10636;19.390;-99.256;2022-09-09T00:24:34;6.40;;;5.80;;
20954;SDS011;10636;19.390;-99.256;2022-09-09T00:27:11;6.63;;;6.10;;
20954;SDS011;10636;19.390;-99.256;2022-09-09T00:29:47;6.15;;;5.65;;
20954;SDS011;10636;19.390;-99.256;2022-09-09T00:32:21;6.32;;;5.93;;
20954;SDS011;10636;19.390;-99.256;2022-09-09T00:35:01;6.38;;;5.88;;
20954;SDS011;10636;19.390;-99.256;2022-09-09T00:37:41;6.65;;;6.15;;
20954;SDS011;10636;19.390;-99.256;2022-09-09T00:40:16;9.35;;;6.45;;
20954;SDS011;10636;19.390;-99.256;2022-09-09T00:42:53;6.80;;;6.20;;
20954;SDS011;10636;19.390;-99.256;2022-09-09T00:45:42;7.63;;;6.93;;
20954;SDS011;10636;19.390;-99.256;2022-09-09T00:48:39;7.20;;;6.60;;
20954;SDS011;10636;19.390;-99.256;2022-09-09T00:51:21;7.95;;;7.35;;
20954;SDS011;10636;19.390;-99.256;2022-09-09T00:54:10;7.65;;;7.05;;
20954;SDS011;10636;19.390;-99.256;2022-09-09T00:56:50;7.97;;;7.38;;
20954;SDS011;10636;19.390;-99.256;2022-09-09T00:59:33;8.10;;;7.40;;
20954;SDS011;10636;19.390;-99.256;2022-09-09T01:02:13;8.10;;;7.50;;
20954;SDS011;10636;19.390;-99.256;2022-09-09T01:04:50;7.97;;;7.28;;
20954;SDS011;10636;19.390;-99.256;2022-09-09T01:07:20;8.45;;;7.65;;
20954;SDS011;10636;19.390;-99.256;2022-09-09T01:09:51;8.40;;;7.63;;
20954;SDS011;10636;19.390;-99.256;2022-09-09T01:12:24;7.63;;;7.07;;
20954;SDS011;10636;19.390;-99.256;2022-09-09T01:15:00;8.20;;;7.50;;
20954;SDS011;10636;19.390;-99.256;2022-09-09T01:17:39;7.50;;;6.80;;
20954;SDS011;10636;19.390;-99.256;2022-09-09T01:20:18;7.05;;;6.38;;
20954;SDS011;10636;19.390;-99.256;2022-09-09T01:23:04;7.20;;;6.60;;
20954;SDS011;10636;19.390;-99.256;2022-09-09T01:26:08;7.15;;;6.53;;
20954;SDS011;10636;19.390;-99.256;2022-09-09T01:28:50;7.10;;;6.40;;
20954;SDS011;10636;19.390;-99.256;2022-09-09T01:31:20;7.75;;;6.80;;
20954;SDS011;10636;19.390;-99.256;2022-09-09T01:33:54;6.97;;;6.40;;
20954;SDS011;10636;19.390;-99.256;2022-09-09T01:36:24;6.50;;;6.00;;
20954;SDS011;10636;19.390;-99.256;2022-09-09T01:39:01;6.68;;;6.07;;
20954;SDS011;10636;19.390;-99.256;2022-09-09T01:41:32;6.43;;;5.93;;
20954;SDS011;10636;19.390;-99.256;2022-09-09T01:44:00;6.43;;;5.90;;
20954;SDS011;10636;19.390;-99.256;2022-09-09T01:46:30;6.40;;;5.82;;
20954;SDS011;10636;19.390;-99.256;2022-09-09T01:52:20;6.80;;;6.22;;
20954;SDS011;10636;19.390;-99.256;2022-09-09T01:55:07;6.65;;;6.07;;
20954;SDS011;10636;19.390;-99.256;2022-09-09T01:57:56;6.55;;;5.95;;
20954;SDS011;10636;19.390;-99.256;2022-09-09T02:00:35;6.25;;;5.65;;
20954;SDS011;10636;19.390;-99.256;2022-09-09T02:03:11;5.78;;;5.28;;
20954;SDS011;10636;19.390;-99.256;2022-09-09T02:05:52;5.72;;;5.32;;
20954;SDS011;10636;19.390;-99.256;2022-09-09T02:08:30;5.97;;;5.10;;
20954;SDS011;10636;19.390;-99.256;2022-09-09T02:11:06;7.68;;;6.50;;
20954;SDS011;10636;19.390;-99.256;2022-09-09T02:13:40;9.20;;;7.60;;
20954;SDS011;10636;19.390;-99.256;2022-09-09T02:16:30;9.65;;;7.30;;
20954;SDS011;10636;19.390;-99.256;2022-09-09T02:19:06;8.80;;;6.85;;
20954;SDS011;10636;19.390;-99.256;2022-09-09T02:21:39;6.88;;;6.15;;
20954;SDS011;10636;19.390;-99.256;2022-09-09T02:24:11;7.47;;;6.32;;
20954;SDS011;10636;19.390;-99.256;2022-09-09T02:26:43;6.47;;;5.88;;
20954;SDS011;10636;19.390;-99.256;2022-09-09T02:29:18;6.50;;;5.22;;
20954;SDS011;10636;19.390;-99.256;2022-09-09T02:31:50;5.05;;;4.47;;
20954;SDS011;10636;19.390;-99.256;2022-09-09T02:34:20;4.35;;;3.95;;
20954;SDS011;10636;19.390;-99.256;2022-09-09T02:36:51;3.63;;;3.33;;
20954;SDS011;10636;19.390;-99.256;2022-09-09T02:39:22;3.55;;;3.13;;
20954;SDS011;10636;19.390;-99.256;2022-09-09T02:41:51;3.40;;;3.10;;
20954;SDS011;10636;19.390;-99.256;2022-09-09T02:44:21;2.85;;;2.55;;
20954;SDS011;10636;19.390;-99.256;2022-09-09T02:49:47;2.95;;;2.38;;
20954;SDS011;10636;19.390;-99.256;2022-09-09T02:52:26;2.40;;;2.20;;
20954;SDS011;10636;19.390;-99.256;2022-09-09T02:55:06;3.50;;;2.40;;
20954;SDS011;10636;19.390;-99.256;2022-09-09T02:57:39;3.47;;;2.20;;
20954;SDS011;10636;19.390;-99.256;2022-09-09T03:00:13;2.67;;;2.10;;
20954;SDS011;10636;19.390;-99.256;2022-09-09T03:02:41;2.53;;;2.20;;
20954;SDS011;10636;19.390;-99.256;2022-09-09T03:05:10;2.30;;;2.10;;
20954;SDS011;10636;19.390;-99.256;2022-09-09T03:07:39;2.30;;;2.10;;
20954;SDS011;10636;19.390;-99.256;2022-09-09T03:10:08;2.65;;;2.15;;
20954;SDS011;10636;19.390;-99.256;2022-09-09T03:12:36;2.22;;;2.03;;
20954;SDS011;10636;19.390;-99.256;2022-09-09T03:15:06;3.42;;;2.20;;
20954;SDS011;10636;19.390;-99.256;2022-09-09T03:17:37;2.55;;;2.35;;
20954;SDS011;10636;19.390;-99.256;2022-09-09T03:20:06;2.92;;;2.05;;
20954;SDS011;10636;19.390;-99.256;2022-09-09T03:22:35;2.30;;;2.10;;
20954;SDS011;10636;19.390;-99.256;2022-09-09T03:25:03;2.80;;;2.25;;
20954;SDS011;10636;19.390;-99.256;2022-09-09T03:27:32;2.63;;;2.40;;
20954;SDS011;10636;19.390;-99.256;2022-09-09T03:30:01;3.03;;;2.30;;
20954;SDS011;10636;19.390;-99.256;2022-09-09T03:32:30;2.60;;;2.40;;
20954;SDS011;10636;19.390;-99.256;2022-09-09T03:35:00;3.17;;;2.40;;
20954;SDS011;10636;19.390;-99.256;2022-09-09T03:37:29;2.40;;;2.20;;
20954;SDS011;10636;19.390;-99.256;2022-09-09T03:39:57;2.97;;;2.13;;
20954;SDS011;10636;19.390;-99.256;2022-09-09T03:42:25;2.95;;;2.13;;
20954;SDS011;10636;19.390;-99.256;2022-09-09T03:44:54;2.75;;;2.20;;
20954;SDS011;10636;19.390;-99.256;2022-09-09T03:47:23;2.28;;;2.08;;
20954;SDS011;10636;19.390;-99.256;2022-09-09T03:49:51;3.30;;;2.10;;
20954;SDS011;10636;19.390;-99.256;2022-09-09T03:52:22;2.75;;;2.05;;
20954;SDS011;10636;19.390;-99.256;2022-09-09T03:54:52;2.20;;;2.00;;
20954;SDS011;10636;19.390;-99.256;2022-09-09T03:57:22;2.42;;;2.10;;
20954;SDS011;10636;19.390;-99.256;2022-09-09T03:59:50;1.80;;;1.70;;
20954;SDS011;10636;19.390;-99.256;2022-09-09T04:02:19;1.85;;;1.73;;
20954;SDS011;10636;19.390;-99.256;2022-09-09T04:04:48;2.55;;;1.90;;
20954;SDS011;10636;19.390;-99.256;2022-09-09T04:07:16;2.35;;;2.00;;
20954;SDS011;10636;19.390;-99.256;2022-09-09T04:09:46;1.80;;;1.70;;
20954;SDS011;10636;19.390;-99.256;2022-09-09T04:12:15;2.22;;;2.00;;
20954;SDS011;10636;19.390;-99.256;2022-09-09T04:14:43;1.88;;;1.77;;
20954;SDS011;10636;19.390;-99.256;2022-09-09T04:17:12;1.80;;;1.70;;
20954;SDS011;10636;19.390;-99.256;2022-09-09T04:19:40;1.95;;;1.75;;
20954;SDS011;10636;19.390;-99.256;2022-09-09T04:22:09;2.03;;;1.80;;
20954;SDS011;10636;19.390;-99.256;2022-09-09T04:24:38;2.45;;;1.80;;
20954;SDS011;10636;19.390;-99.256;2022-09-09T04:27:08;2.00;;;1.90;;
20954;SDS011;10636;19.390;-99.256;2022-09-09T04:29:36;1.92;;;1.77;;
20954;SDS011;10636;19.390;-99.256;2022-09-09T04:32:04;1.85;;;1.73;;
20954;SDS011;10636;19.390;-99.256;2022-09-09T04:34:33;2.28;;;2.08;;
20954;SDS011;10636;19.390;-99.256;2022-09-09T04:37:01;2.08;;;1.88;;
20954;SDS011;10636;19.390;-99.256;2022-09-09T04:39:30;2.13;;;1.77;;
20954;SDS011;10636;19.390;-99.256;2022-09-09T04:41:58;1.77;;;1.67;;
20954;SDS011;10636;19.390;-99.256;2022-09-09T04:44:29;2.10;;;1.77;;
20954;SDS011;10636;19.390;-99.256;2022-09-09T04:46:57;1.80;;;1.70;;
20954;SDS011;10636;19.390;-99.256;2022-09-09T04:49:25;2.00;;;1.77;;
20954;SDS011;10636;19.390;-99.256;2022-09-09T04:51:55;2.10;;;2.00;;
20954;SDS011;10636;19.390;-99.256;2022-09-09T04:54:23;1.83;;;1.73;;
20954;SDS011;10636;19.390;-99.256;2022-09-09T04:56:53;2.35;;;1.80;;
20954;SDS011;10636;19.390;-99.256;2022-09-09T04:59:21;2.55;;;2.03;;
20954;SDS011;10636;19.390;-99.256;2022-09-09T05:01:52;2.47;;;1.90;;
20954;SDS011;10636;19.390;-99.256;2022-09-09T05:04:21;2.20;;;2.00;;
20954;SDS011;10636;19.390;-99.256;2022-09-09T05:06:49;2.47;;;2.28;;
20954;SDS011;10636;19.390;-99.256;2022-09-09T05:09:18;2.42;;;2.22;;
20954;SDS011;10636;19.390;-99.256;2022-09-09T05:11:46;2.42;;;2.22;;
20954;SDS011;10636;19.390;-99.256;2022-09-09T05:14:15;2.80;;;2.60;;
20954;SDS011;10636;19.390;-99.256;2022-09-09T05:16:44;2.78;;;2.45;;
20954;SDS011;10636;19.390;-99.256;2022-09-09T05:19:14;2.38;;;2.22;;
20954;SDS011;10636;19.390;-99.256;2022-09-09T05:21:44;2.47;;;2.33;;
20954;SDS011;10636;19.390;-99.256;2022-09-09T05:24:13;2.92;;;2.72;;
20954;SDS011;10636;19.390;-99.256;2022-09-09T05:26:41;2.80;;;2.60;;
20954;SDS011;10636;19.390;-99.256;2022-09-09T05:29:10;2.70;;;2.50;;
20954;SDS011;10636;19.390;-99.256;2022-09-09T05:31:38;2.70;;;2.50;;
20954;SDS011;10636;19.390;-99.256;2022-09-09T05:34:06;2.60;;;2.40;;
20954;SDS011;10636;19.390;-99.256;2022-09-09T05:36:36;2.60;;;2.40;;
20954;SDS011;10636;19.390;-99.256;2022-09-09T05:39:05;2.58;;;2.38;;
20954;SDS011;10636;19.390;-99.256;2022-09-09T05:41:33;2.60;;;2.40;;
20954;SDS011;10636;19.390;-99.256;2022-09-09T05:44:02;2.42;;;2.22;;
20954;SDS011;10636;19.390;-99.256;2022-09-09T05:46:31;2.40;;;2.20;;
20954;SDS011;10636;19.390;-99.256;2022-09-09T05:49:00;2.72;;;2.53;;
20954;SDS011;10636;19.390;-99.256;2022-09-09T05:51:31;2.60;;;2.40;;
20954;SDS011;10636;19.390;-99.256;2022-09-09T05:54:01;2.90;;;2.60;;
20954;SDS011;10636;19.390;-99.256;2022-09-09T05:56:30;2.83;;;2.63;;
20954;SDS011;10636;19.390;-99.256;2022-09-09T05:58:58;2.90;;;2.70;;
20954;SDS011;10636;19.390;-99.256;2022-09-09T06:01:28;2.45;;;2.25;;
20954;SDS011;10636;19.390;-99.256;2022-09-09T06:03:58;3.65;;;2.63;;
20954;SDS011;10636;19.390;-99.256;2022-09-09T06:06:29;2.72;;;2.53;;
20954;SDS011;10636;19.390;-99.256;2022-09-09T06:09:04;2.50;;;2.10;;
20954;SDS011;10636;19.390;-99.256;2022-09-09T06:11:35;2.67;;;2.47;;
20954;SDS011;10636;19.390;-99.256;2022-09-09T06:14:04;2.90;;;2.70;;
20954;SDS011;10636;19.390;-99.256;2022-09-09T06:16:36;2.70;;;2.50;;
20954;SDS011;10636;19.390;-99.256;2022-09-09T06:19:05;3.17;;;2.60;;
20954;SDS011;10636;19.390;-99.256;2022-09-09T06:21:34;2.70;;;2.50;;
20954;SDS011;10636;19.390;-99.256;2022-09-09T06:24:05;3.17;;;2.63;;
20954;SDS011;10636;19.390;-99.256;2022-09-09T06:26:34;3.00;;;2.70;;
20954;SDS011;10636;19.390;-99.256;2022-09-09T06:29:06;2.65;;;2.45;;
20954;SDS011;10636;19.390;-99.256;2022-09-09T06:31:35;3.28;;;2.70;;
20954;SDS011;10636;19.390;-99.256;2022-09-09T06:34:04;2.60;;;2.40;;
20954;SDS011;10636;19.390;-99.256;2022-09-09T06:36:34;2.90;;;2.60;;
20954;SDS011;10636;19.390;-99.256;2022-09-09T06:39:05;3.10;;;2.67;;
20954;SDS011;10636;19.390;-99.256;2022-09-09T06:41:36;2.97;;;2.78;;
20954;SDS011;10636;19.390;-99.256;2022-09-09T06:44:05;2.88;;;2.67;;
20954;SDS011;10636;19.390;-99.256;2022-09-09T06:46:33;2.90;;;2.70;;
20954;SDS011;10636;19.390;-99.256;2022-09-09T06:49:03;2.97;;;2.75;;
20954;SDS011;10636;19.390;-99.256;2022-09-09T06:51:33;2.92;;;2.72;;
20954;SDS011;10636;19.390;-99.256;2022-09-09T06:54:03;3.50;;;2.80;;
20954;SDS011;10636;19.390;-99.256;2022-09-09T06:56:33;3.03;;;2.53;;
20954;SDS011;10636;19.390;-99.256;2022-09-09T06:59:03;3.30;;;2.75;;
20954;SDS011;10636;19.390;-99.256;2022-09-09T07:01:34;2.95;;;2.55;;
20954;SDS011;10636;19.390;-99.256;2022-09-09T07:04:04;3.08;;;2.60;;
20954;SDS011;10636;19.390;-99.256;2022-09-09T07:06:34;2.50;;;2.30;;
20954;SDS011;10636;19.390;-99.256;2022-09-09T07:09:06;2.67;;;2.47;;
20954;SDS011;10636;19.390;-99.256;2022-09-09T07:11:37;2.88;;;2.58;;
20954;SDS011;10636;19.390;-99.256;2022-09-09T07:14:08;2.72;;;2.40;;
20954;SDS011;10636;19.390;-99.256;2022-09-09T07:16:38;2.58;;;2.30;;
20954;SDS011;10636;19.390;-99.256;2022-09-09T07:19:07;2.80;;;2.60;;
20954;SDS011;10636;19.390;-99.256;2022-09-09T07:21:36;2.78;;;2.58;;
20954;SDS011;10636;19.390;-99.256;2022-09-09T07:24:07;2.70;;;2.40;;
20954;SDS011;10636;19.390;-99.256;2022-09-09T07:26:36;2.63;;;2.42;;
20954;SDS011;10636;19.390;-99.256;2022-09-09T07:29:05;3.28;;;2.28;;
20954;SDS011;10636;19.390;-99.256;2022-09-09T07:31:36;2.42;;;2.20;;
20954;SDS011;10636;19.390;-99.256;2022-09-09T07:34:06;2.60;;;2.40;;
20954;SDS011;10636;19.390;-99.256;2022-09-09T07:36:35;2.83;;;2.20;;
20954;SDS011;10636;19.390;-99.256;2022-09-09T07:39:07;2.55;;;2.35;;
20954;SDS011;10636;19.390;-99.256;2022-09-09T07:41:38;2.53;;;2.33;;
20954;SDS011;10636;19.390;-99.256;2022-09-09T07:44:09;2.20;;;2.10;;
20954;SDS011;10636;19.390;-99.256;2022-09-09T07:46:38;2.60;;;2.40;;
20954;SDS011;10636;19.390;-99.256;2022-09-09T07:49:07;2.13;;;2.03;;
20954;SDS011;10636;19.390;-99.256;2022-09-09T07:51:38;3.08;;;2.30;;
20954;SDS011;10636;19.390;-99.256;2022-09-09T07:54:10;2.47;;;2.20;;
20954;SDS011;10636;19.390;-99.256;2022-09-09T07:56:41;2.15;;;1.95;;
20954;SDS011;10636;19.390;-99.256;2022-09-09T07:59:10;2.40;;;2.20;;
20954;SDS011;10636;19.390;-99.256;2022-09-09T08:01:38;2.10;;;2.00;;
20954;SDS011;10636;19.390;-99.256;2022-09-09T08:04:09;2.42;;;2.20;;
20954;SDS011;10636;19.390;-99.256;2022-09-09T08:06:43;2.42;;;2.05;;
20954;SDS011;10636;19.390;-99.256;2022-09-09T08:09:15;2.10;;;2.00;;
20954;SDS011;10636;19.390;-99.256;2022-09-09T08:11:44;2.72;;;2.08;;
20954;SDS011;10636;19.390;-99.256;2022-09-09T08:14:13;2.30;;;2.10;;
20954;SDS011;10636;19.390;-99.256;2022-09-09T08:16:44;2.30;;;2.10;;
20954;SDS011;10636;19.390;-99.256;2022-09-09T08:19:14;2.55;;;2.35;;
20954;SDS011;10636;19.390;-99.256;2022-09-09T08:21:43;3.17;;;2.10;;
20954;SDS011;10636;19.390;-99.256;2022-09-09T08:24:16;2.20;;;2.03;;
20954;SDS011;10636;19.390;-99.256;2022-09-09T08:26:45;2.35;;;2.03;;
20954;SDS011;10636;19.390;-99.256;2022-09-09T08:29:15;2.20;;;2.10;;
20954;SDS011;10636;19.390;-99.256;2022-09-09T08:31:45;2.38;;;2.17;;
20954;SDS011;10636;19.390;-99.256;2022-09-09T08:34:15;2.72;;;2.42;;
20954;SDS011;10636;19.390;-99.256;2022-09-09T08:36:46;2.40;;;2.20;;
20954;SDS011;10636;19.390;-99.256;2022-09-09T08:39:17;2.55;;;2.22;;
20954;SDS011;10636;19.390;-99.256;2022-09-09T08:47:54;2.50;;;2.30;;
20954;SDS011;10636;19.390;-99.256;2022-09-09T08:50:32;2.60;;;2.40;;
20954;SDS011;10636;19.390;-99.256;2022-09-09T08:53:04;2.38;;;2.17;;
20954;SDS011;10636;19.390;-99.256;2022-09-09T08:55:41;2.67;;;2.20;;
20954;SDS011;10636;19.390;-99.256;2022-09-09T08:58:14;2.55;;;2.35;;
20954;SDS011;10636;19.390;-99.256;2022-09-09T09:00:58;2.33;;;2.13;;
20954;SDS011;10636;19.390;-99.256;2022-09-09T09:03:41;2.78;;;2.28;;
20954;SDS011;10636;19.390;-99.256;2022-09-09T09:06:20;2.60;;;2.40;;
20954;SDS011;10636;19.390;-99.256;2022-09-09T09:08:56;2.92;;;2.72;;
20954;SDS011;10636;19.390;-99.256;2022-09-09T09:11:36;2.60;;;2.40;;
20954;SDS011;10636;19.390;-99.256;2022-09-09T09:14:09;2.78;;;2.58;;
20954;SDS011;10636;19.390;-99.256;2022-09-09T09:16:48;3.25;;;3.05;;
20954;SDS011;10636;19.390;-99.256;2022-09-09T09:19:20;2.90;;;2.70;;
20954;SDS011;10636;19.390;-99.256;2022-09-09T09:21:53;3.00;;;2.80;;
20954;SDS011;10636;19.390;-99.256;2022-09-09T09:24:30;3.30;;;3.10;;
20954;SDS011;10636;19.390;-99.256;2022-09-09T09:27:11;3.10;;;2.90;;
20954;SDS011;10636;19.390;-99.256;2022-09-09T09:29:41;3.20;;;2.90;;
20954;SDS011;10636;19.390;-99.256;2022-09-09T09:32:13;3.30;;;3.00;;
20954;SDS011;10636;19.390;-99.256;2022-09-09T09:34:48;3.80;;;3.50;;
20954;SDS011;10636;19.390;-99.256;2022-09-09T09:37:21;3.90;;;3.60;;
20954;SDS011;10636;19.390;-99.256;2022-09-09T09:39:54;3.95;;;3.65;;
20954;SDS011;10636;19.390;-99.256;2022-09-09T09:42:24;3.90;;;3.60;;
20954;SDS011;10636;19.390;-99.256;2022-09-09T09:44:53;4.65;;;4.25;;
20954;SDS011;10636;19.390;-99.256;2022-09-09T09:47:21;4.38;;;4.07;;
20954;SDS011;10636;19.390;-99.256;2022-09-09T09:49:52;4.72;;;4.30;;
20954;SDS011;10636;19.390;-99.256;2022-09-09T09:52:22;4.38;;;4.07;;
20954;SDS011;10636;19.390;-99.256;2022-09-09T09:54:52;4.20;;;3.90;;
20954;SDS011;10636;19.390;-99.256;2022-09-09T09:57:25;4.25;;;3.85;;
20954;SDS011;10636;19.390;-99.256;2022-09-09T10:00:04;4.15;;;3.75;;
20954;SDS011;10636;19.390;-99.256;2022-09-09T10:02:40;5.07;;;4.68;;
20954;SDS011;10636;19.390;-99.256;2022-09-09T10:05:13;4.82;;;4.50;;
20954;SDS011;10636;19.390;-99.256;2022-09-09T10:07:43;5.20;;;4.70;;
20954;SDS011;10636;19.390;-99.256;2022-09-09T10:10:13;4.80;;;4.50;;
20954;SDS011;10636;19.390;-99.256;2022-09-09T10:12:53;5.47;;;4.97;;
20954;SDS011;10636;19.390;-99.256;2022-09-09T10:15:32;5.05;;;4.72;;
20954;SDS011;10636;19.390;-99.256;2022-09-09T10:18:17;5.25;;;4.82;;
20954;SDS011;10636;19.390;-99.256;2022-09-09T10:21:01;4.78;;;4.38;;
20954;SDS011;10636;19.390;-99.256;2022-09-09T10:23:42;5.03;;;4.60;;
20954;SDS011;10636;19.390;-99.256;2022-09-09T10:26:28;4.97;;;4.57;;
20954;SDS011;10636;19.390;-99.256;2022-09-09T10:29:25;5.03;;;4.63;;
20954;SDS011;10636;19.390;-99.256;2022-09-09T10:32:13;5.53;;;5.13;;
20954;SDS011;10636;19.390;-99.256;2022-09-09T10:34:58;5.15;;;4.68;;
20954;SDS011;10636;19.390;-99.256;2022-09-09T10:37:36;5.38;;;4.88;;
20954;SDS011;10636;19.390;-99.256;2022-09-09T10:40:19;5.85;;;5.30;;
20954;SDS011;10636;19.390;-99.256;2022-09-09T10:42:58;6.28;;;5.55;;
20954;SDS011;10636;19.390;-99.256;2022-09-09T10:45:41;5.95;;;5.43;;
20954;SDS011;10636;19.390;-99.256;2022-09-09T10:48:30;6.13;;;5.53;;
20954;SDS011;10636;19.390;-99.256;2022-09-09T10:51:14;5.75;;;5.30;;
20954;SDS011;10636;19.390;-99.256;2022-09-09T10:53:52;6.93;;;5.25;;
20954;SDS011;10636;19.390;-99.256;2022-09-09T10:56:36;5.45;;;4.95;;
20954;SDS011;10636;19.390;-99.256;2022-09-09T10:59:07;6.25;;;5.75;;
20954;SDS011;10636;19.390;-99.256;2022-09-09T11:01:43;6.18;;;5.57;;
20954;SDS011;10636;19.390;-99.256;2022-09-09T11:04:19;6.95;;;6.32;;
20954;SDS011;10636;19.390;-99.256;2022-09-09T11:06:52;6.60;;;6.00;;
20954;SDS011;10636;19.390;-99.256;2022-09-09T11:09:23;6.63;;;6.03;;
20954;SDS011;10636;19.390;-99.256;2022-09-09T11:11:54;7.57;;;6.53;;
20954;SDS011;10636;19.390;-99.256;2022-09-09T11:14:26;7.22;;;6.68;;
20954;SDS011;10636;19.390;-99.256;2022-09-09T11:17:01;7.57;;;6.88;;
20954;SDS011;10636;19.390;-99.256;2022-09-09T11:19:33;7.35;;;6.70;;
20954;SDS011;10636;19.390;-99.256;2022-09-09T11:22:04;7.18;;;6.47;;
20954;SDS011;10636;19.390;-99.256;2022-09-09T11:24:43;8.35;;;7.50;;
20954;SDS011;10636;19.390;-99.256;2022-09-09T11:27:14;7.88;;;7.18;;
20954;SDS011;10636;19.390;-99.256;2022-09-09T11:36:03;8.85;;;8.15;;
20954;SDS011;10636;19.390;-99.256;2022-09-09T11:38:45;9.57;;;8.75;;
20954;SDS011;10636;19.390;-99.256;2022-09-09T11:41:16;8.77;;;7.90;;
20954;SDS011;10636;19.390;-99.256;2022-09-09T11:43:47;9.25;;;8.52;;
20954;SDS011;10636;19.390;-99.256;2022-09-09T11:46:18;10.15;;;8.40;;
20954;SDS011;10636;19.390;-99.256;2022-09-09T11:48:59;9.77;;;8.88;;
20954;SDS011;10636;19.390;-99.256;2022-09-09T11:51:29;9.63;;;8.73;;
20954;SDS011;10636;19.390;-99.256;2022-09-09T11:53:59;9.82;;;8.98;;
20954;SDS011;10636;19.390;-99.256;2022-09-09T11:56:30;9.45;;;8.65;;
20954;SDS011;10636;19.390;-99.256;2022-09-09T11:59:00;9.80;;;9.00;;
20954;SDS011;10636;19.390;-99.256;2022-09-09T12:04:22;9.50;;;8.52;;
20954;SDS011;10636;19.390;-99.256;2022-09-09T12:07:04;9.45;;;8.55;;
20954;SDS011;10636;19.390;-99.256;2022-09-09T12:09:50;9.77;;;8.88;;
20954;SDS011;10636;19.390;-99.256;2022-09-09T12:12:23;10.20;;;9.23;;
20954;SDS011;10636;19.390;-99.256;2022-09-09T12:14:55;9.32;;;8.18;;
20954;SDS011;10636;19.390;-99.256;2022-09-09T12:17:29;10.55;;;9.48;;
20954;SDS011;10636;19.390;-99.256;2022-09-09T12:20:08;9.80;;;8.90;;
20954;SDS011;10636;19.390;-99.256;2022-09-09T12:22:44;10.05;;;9.13;;
20954;SDS011;10636;19.390;-99.256;2022-09-09T12:25:45;10.00;;;9.10;;
20954;SDS011;10636;19.390;-99.256;2022-09-09T12:28:22;10.65;;;8.82;;
20954;SDS011;10636;19.390;-99.256;2022-09-09T12:30:55;10.45;;;9.45;;
20954;SDS011;10636;19.390;-99.256;2022-09-09T12:33:33;10.45;;;9.45;;
20954;SDS011;10636;19.390;-99.256;2022-09-09T12:36:05;10.88;;;9.48;;
20954;SDS011;10636;19.390;-99.256;2022-09-09T12:38:39;9.95;;;9.15;;
20954;SDS011;10636;19.390;-99.256;2022-09-09T12:41:16;10.43;;;9.55;;
20954;SDS011;10636;19.390;-99.256;2022-09-09T12:43:47;10.77;;;9.82;;
20954;SDS011;10636;19.390;-99.256;2022-09-09T12:46:17;10.27;;;9.38;;
20954;SDS011;10636;19.390;-99.256;2022-09-09T12:48:55;9.40;;;8.50;;
20954;SDS011;10636;19.390;-99.256;2022-09-09T12:51:26;10.15;;;9.15;;
20954;SDS011;10636;19.390;-99.256;2022-09-09T12:53:56;9.88;;;8.98;;
20954;SDS011;10636;19.390;-99.256;2022-09-09T12:56:26;10.30;;;9.20;;
20954;SDS011;10636;19.390;-99.256;2022-09-09T12:58:57;11.32;;;9.35;;
20954;SDS011;10636;19.390;-99.256;2022-09-09T13:01:27;9.77;;;8.98;;
20954;SDS011;10636;19.390;-99.256;2022-09-09T13:03:56;10.20;;;9.25;;
20954;SDS011;10636;19.390;-99.256;2022-09-09T13:06:27;10.57;;;8.90;;
20954;SDS011;10636;19.390;-99.256;2022-09-09T13:08:57;12.70;;;9.20;;
20954;SDS011;10636;19.390;-99.256;2022-09-09T13:11:28;10.43;;;9.43;;
20954;SDS011;10636;19.390;-99.256;2022-09-09T13:14:03;10.52;;;9.52;;
20954;SDS011;10636;19.390;-99.256;2022-09-09T13:16:34;10.77;;;9.77;;
20954;SDS011;10636;19.390;-99.256;2022-09-09T13:19:06;10.55;;;9.65;;
20954;SDS011;10636;19.390;-99.256;2022-09-09T13:21:42;11.10;;;10.10;;
20954;SDS011;10636;19.390;-99.256;2022-09-09T13:24:22;10.35;;;9.35;;
20954;SDS011;10636;19.390;-99.256;2022-09-09T13:26:55;10.57;;;9.60;;
20954;SDS011;10636;19.390;-99.256;2022-09-09T13:29:24;11.07;;;9.30;;
20954;SDS011;10636;19.390;-99.256;2022-09-09T13:31:52;9.93;;;9.02;;
20954;SDS011;10636;19.390;-99.256;2022-09-09T13:34:31;10.70;;;9.60;;
20954;SDS011;10636;19.390;-99.256;2022-09-09T13:37:19;10.40;;;9.40;;
20954;SDS011;10636;19.390;-99.256;2022-09-09T13:39:56;10.57;;;9.48;;
20954;SDS011;10636;19.390;-99.256;2022-09-09T13:42:25;12.00;;;10.75;;
20954;SDS011;10636;19.390;-99.256;2022-09-09T13:45:00;13.60;;;11.40;;
20954;SDS011;10636;19.390;-99.256;2022-09-09T13:47:31;15.27;;;12.40;;
20954;SDS011;10636;19.390;-99.256;2022-09-09T13:50:10;15.77;;;13.82;;
20954;SDS011;10636;19.390;-99.256;2022-09-09T13:52:48;20.15;;;13.45;;
20954;SDS011;10636;19.390;-99.256;2022-09-09T13:55:23;15.57;;;13.43;;
20954;SDS011;10636;19.390;-99.256;2022-09-09T13:57:54;15.05;;;12.90;;
20954;SDS011;10636;19.390;-99.256;2022-09-09T14:00:27;19.63;;;15.02;;
20954;SDS011;10636;19.390;-99.256;2022-09-09T14:02:58;17.85;;;15.90;;
20954;SDS011;10636;19.390;-99.256;2022-09-09T14:05:27;19.20;;;15.57;;
20954;SDS011;10636;19.390;-99.256;2022-09-09T14:08:00;19.15;;;17.20;;
20954;SDS011;10636;19.390;-99.256;2022-09-09T14:10:31;19.40;;;17.50;;
20954;SDS011;10636;19.390;-99.256;2022-09-09T14:13:17;20.05;;;17.90;;
20954;SDS011;10636;19.390;-99.256;2022-09-09T14:15:48;20.25;;;18.13;;
20954;SDS011;10636;19.390;-99.256;2022-09-09T14:18:17;25.45;;;19.67;;
20954;SDS011;10636;19.390;-99.256;2022-09-09T14:20:45;25.17;;;22.77;;
20954;SDS011;10636;19.390;-99.256;2022-09-09T14:23:16;26.55;;;23.80;;
20954;SDS011;10636;19.390;-99.256;2022-09-09T14:25:58;28.20;;;25.40;;
20954;SDS011;10636;19.390;-99.256;2022-09-09T14:28:27;27.60;;;24.17;;
20954;SDS011;10636;19.390;-99.256;2022-09-09T14:30:59;28.30;;;25.70;;
20954;SDS011;10636;19.390;-99.256;2022-09-09T14:33:27;28.38;;;25.60;;
20954;SDS011;10636;19.390;-99.256;2022-09-09T14:35:56;28.40;;;25.73;;
20954;SDS011;10636;19.390;-99.256;2022-09-09T14:38:25;30.20;;;27.40;;
20954;SDS011;10636;19.390;-99.256;2022-09-09T14:40:57;30.25;;;27.42;;
20954;SDS011;10636;19.390;-99.256;2022-09-09T14:43:28;31.45;;;28.55;;
20954;SDS011;10636;19.390;-99.256;2022-09-09T14:46:08;31.45;;;28.45;;
20954;SDS011;10636;19.390;-99.256;2022-09-09T14:48:37;30.50;;;27.50;;
20954;SDS011;10636;19.390;-99.256;2022-09-09T14:51:13;31.05;;;28.17;;
20954;SDS011;10636;19.390;-99.256;2022-09-09T14:53:47;31.60;;;28.42;;
20954;SDS011;10636;19.390;-99.256;2022-09-09T14:56:20;29.73;;;24.83;;
20954;SDS011;10636;19.390;-99.256;2022-09-09T14:58:52;27.50;;;24.88;;
20954;SDS011;10636;19.390;-99.256;2022-09-09T15:01:24;29.35;;;24.15;;
20954;SDS011;10636;19.390;-99.256;2022-09-09T15:03:54;26.27;;;23.75;;
20954;SDS011;10636;19.390;-99.256;2022-09-09T15:06:24;25.67;;;23.05;;
20954;SDS011;10636;19.390;-99.256;2022-09-09T15:08:55;25.75;;;23.00;;
20954;SDS011;10636;19.390;-99.256;2022-09-09T15:11:25;24.77;;;22.27;;
20954;SDS011;10636;19.390;-99.256;2022-09-09T15:13:57;25.77;;;23.33;;